Time;durP1;ratioP1;P1;durP2;ratioP2;P2;SDS_P1;SDS_P2;PMS_P1;PMS_P2;Temp;Humidity;BMP_temperature;BMP_pressure;BME280_temperature;BME280_humidity;BME280_pressure;Samples;Min_cycle;Max_cycle;Signal;HPM_P1;HPM_P2
2022/07/25 00:00:09;;;;;;;6.60;5.05;;;;;;;29.00;42.43;100720.22;5073171;28;20049;-74
2022/07/25 00:02:37;;;;;;;5.40;4.90;;;;;;;28.95;42.71;100713.81;5074275;28;20047;-74
2022/07/25 00:05:05;;;;;;;5.75;4.60;;;;;;;28.79;43.39;100713.38;5089933;28;20056;-73
2022/07/25 00:07:33;;;;;;;10.57;5.32;;;;;;;28.78;43.42;100715.38;5074300;28;20052;-74
2022/07/25 00:10:01;;;;;;;6.05;5.05;;;;;;;28.74;43.31;100719.41;5060434;28;20048;-74
2022/07/25 00:12:29;;;;;;;4.78;4.30;;;;;;;28.73;43.43;100717.81;5074442;28;20479;-74
2022/07/25 00:14:56;;;;;;;5.93;4.75;;;;;;;28.53;43.95;100718.19;5074316;28;20487;-74
2022/07/25 00:17:24;;;;;;;6.97;5.40;;;;;;;28.58;43.94;100717.78;5074395;28;20051;-74
2022/07/25 00:19:52;;;;;;;6.32;5.07;;;;;;;28.57;44.56;100717.00;5072802;28;20040;-74
2022/07/25 00:22:20;;;;;;;4.40;3.97;;;;;;;28.67;44.05;100711.75;5074276;28;20059;-74
2022/07/25 00:24:48;;;;;;;6.93;4.55;;;;;;;28.44;44.68;100716.59;5072967;28;20052;-74
2022/07/25 00:27:16;;;;;;;9.30;5.72;;;;;;;28.35;44.63;100707.72;5074266;28;20044;-74
2022/07/25 00:29:44;;;;;;;5.72;4.80;;;;;;;28.40;44.75;100715.78;5074063;28;20045;-74
2022/07/25 00:32:12;;;;;;;5.47;4.43;;;;;;;28.25;44.96;100709.31;5073829;28;20047;-74
2022/07/25 00:34:40;;;;;;;5.65;4.65;;;;;;;28.24;45.15;100710.53;5074014;28;20044;-74
2022/07/25 00:37:08;;;;;;;6.72;4.97;;;;;;;28.31;45.17;100712.56;5073835;28;20162;-73
2022/07/25 00:39:35;;;;;;;7.65;5.25;;;;;;;28.10;45.96;100702.84;5073787;28;20047;-74
2022/07/25 00:42:04;;;;;;;5.65;5.15;;;;;;;28.02;45.72;100701.22;5073742;28;20051;-73
2022/07/25 00:44:32;;;;;;;6.13;5.07;;;;;;;28.00;46.09;100704.44;5073908;28;20040;-73
2022/07/25 00:47:00;;;;;;;6.50;4.60;;;;;;;27.90;46.11;100694.75;5073795;28;20048;-73
2022/07/25 00:49:28;;;;;;;5.90;5.05;;;;;;;27.84;46.53;100699.16;5072486;28;20048;-73
2022/07/25 00:51:57;;;;;;;6.50;4.50;;;;;;;27.87;46.76;100698.34;5073637;28;20067;-73
2022/07/25 00:54:25;;;;;;;6.90;4.75;;;;;;;27.88;46.81;100696.34;5073683;28;20036;-73
2022/07/25 00:56:53;;;;;;;5.65;5.15;;;;;;;27.81;47.16;100697.13;5073608;28;20055;-73
2022/07/25 00:59:21;;;;;;;5.78;5.25;;;;;;;27.84;46.73;100692.72;5088976;28;20322;-73
2022/07/25 01:01:49;;;;;;;8.35;5.07;;;;;;;27.66;47.55;100690.66;5073335;28;20070;-73
2022/07/25 01:04:17;;;;;;;6.65;5.40;;;;;;;27.60;47.87;100693.06;5072072;28;20037;-73
2022/07/25 01:06:45;;;;;;;6.40;5.65;;;;;;;27.71;47.38;100690.28;5073396;28;20048;-73
2022/07/25 01:09:13;;;;;;;6.20;4.68;;;;;;;27.74;47.60;100681.06;5072141;28;20049;-73
2022/07/25 01:11:41;;;;;;;5.55;4.97;;;;;;;27.69;47.89;100687.06;5073163;28;20052;-73
2022/07/25 01:14:09;;;;;;;8.02;5.20;;;;;;;27.70;47.63;100685.06;5073292;28;20048;-74
2022/07/25 01:16:37;;;;;;;6.13;5.10;;;;;;;27.63;47.86;100686.63;5072514;28;20057;-73
2022/07/25 01:19:05;;;;;;;7.10;4.90;;;;;;;27.59;47.85;100680.22;5071739;28;20041;-73
2022/07/25 01:21:36;;;;;;;9.23;5.22;;;;;;;27.52;48.14;100685.78;5072805;28;20052;-73
2022/07/25 01:24:05;;;;;;;6.43;4.93;;;;;;;27.49;47.96;100686.56;5073085;28;20052;-73
2022/07/25 01:26:33;;;;;;;5.13;4.63;;;;;;;27.53;47.99;100687.38;5072726;28;20049;-74
2022/07/25 01:29:01;;;;;;;11.00;5.03;;;;;;;27.45;48.21;100674.47;5072809;28;20402;-74
2022/07/25 01:31:29;;;;;;;5.38;4.88;;;;;;;27.50;48.08;100679.72;5072751;28;20102;-74
2022/07/25 01:33:57;;;;;;;5.57;4.57;;;;;;;27.33;49.11;100679.25;5072734;28;20048;-74
2022/07/25 01:36:25;;;;;;;6.50;4.75;;;;;;;27.23;49.00;100680.03;5072764;28;20048;-73
2022/07/25 01:38:53;;;;;;;6.40;5.18;;;;;;;27.33;48.83;100673.63;5069071;28;20040;-74
2022/07/25 01:41:21;;;;;;;7.93;4.80;;;;;;;27.32;48.40;100680.44;5071903;28;20426;-74
2022/07/25 01:43:49;;;;;;;5.65;4.85;;;;;;;27.30;48.43;100682.84;5072442;28;20041;-74
2022/07/25 01:46:17;;;;;;;6.78;4.85;;;;;;;27.17;48.85;100679.56;5072588;28;20605;-74
2022/07/25 01:48:45;;;;;;;5.75;4.82;;;;;;;27.37;48.25;100679.28;5072425;28;20049;-74
2022/07/25 01:51:13;;;;;;;6.00;4.95;;;;;;;27.41;48.00;100680.09;5072550;28;20055;-73
2022/07/25 01:53:47;;;;;;;5.72;5.03;;;;;;;27.37;48.34;100685.69;5088116;28;20048;-74
2022/07/25 01:56:14;;;;;;;5.78;5.20;;;;;;;27.22;48.37;100670.78;5072546;28;20041;-74
2022/07/25 01:58:42;;;;;;;8.90;5.22;;;;;;;27.23;48.47;100669.56;5072470;28;20056;-74
2022/07/25 02:01:10;;;;;;;5.03;4.53;;;;;;;27.27;48.62;100675.19;5072124;28;20048;-74
2022/07/25 02:03:38;;;;;;;5.68;5.13;;;;;;;27.09;48.68;100670.28;5072376;28;20087;-74
2022/07/25 02:06:07;;;;;;;5.20;4.68;;;;;;;27.10;48.71;100666.31;5071364;28;20036;-74
2022/07/25 02:08:34;;;;;;;6.75;4.65;;;;;;;27.13;48.77;100669.53;5065550;28;20037;-74
2022/07/25 02:11:02;;;;;;;7.13;5.18;;;;;;;27.12;49.18;100668.69;5067927;28;20052;-74
2022/07/25 02:13:30;;;;;;;5.28;4.55;;;;;;;27.17;48.87;100664.75;5072314;28;20041;-74
2022/07/25 02:15:59;;;;;;;6.25;4.40;;;;;;;27.06;48.96;100668.28;5072137;28;20048;-74
2022/07/25 02:18:27;;;;;;;5.55;4.95;;;;;;;27.06;48.86;100665.47;5071972;28;20032;-74
2022/07/25 02:20:54;;;;;;;5.35;4.47;;;;;;;26.89;49.42;100666.97;5072054;28;20502;-74
2022/07/25 02:23:22;;;;;;;6.35;4.25;;;;;;;26.83;49.11;100669.31;5071951;28;20418;-74
2022/07/25 02:25:50;;;;;;;5.50;4.95;;;;;;;26.94;49.88;100668.59;5071927;28;20056;-74
2022/07/25 02:28:18;;;;;;;5.32;4.82;;;;;;;26.98;49.37;100666.66;5070706;28;20391;-74
2022/07/25 02:30:46;;;;;;;7.32;4.63;;;;;;;27.04;48.94;100661.44;5071958;28;20534;-74
2022/07/25 02:33:14;;;;;;;5.97;4.82;;;;;;;27.07;48.94;100663.44;5070684;28;20049;-75
2022/07/25 02:35:42;;;;;;;6.70;4.68;;;;;;;27.06;48.80;100659.84;5072004;28;20055;-74
2022/07/25 02:38:10;;;;;;;5.60;4.82;;;;;;;27.02;48.95;100667.44;5057858;28;20056;-74
2022/07/25 02:40:37;;;;;;;4.97;4.47;;;;;;;26.91;49.47;100653.34;5069770;28;20055;-74
2022/07/25 02:43:05;;;;;;;6.18;5.00;;;;;;;26.91;49.79;100663.72;5071199;28;20053;-74
2022/07/25 02:45:33;;;;;;;5.35;4.30;;;;;;;26.86;48.90;100661.28;5071479;28;20082;-74
2022/07/25 02:48:02;;;;;;;5.50;4.78;;;;;;;26.79;49.58;100657.25;5071381;28;20394;-75
2022/07/25 02:50:30;;;;;;;6.03;4.85;;;;;;;26.82;49.21;100659.28;5071721;28;20041;-75
2022/07/25 02:52:57;;;;;;;6.07;4.60;;;;;;;26.85;49.38;100668.94;5071555;28;20052;-74
2022/07/25 02:55:26;;;;;;;6.38;5.40;;;;;;;26.99;48.83;100665.44;5074513;28;20383;-74
2022/07/25 02:57:54;;;;;;;5.82;4.93;;;;;;;27.00;48.48;100667.03;5075556;28;20055;-75
2022/07/25 03:00:22;;;;;;;6.60;4.53;;;;;;;26.90;49.06;100660.13;5075545;28;20406;-74
2022/07/25 03:02:50;;;;;;;6.05;5.05;;;;;;;26.76;50.01;100663.66;5075578;28;20386;-74
2022/07/25 03:05:18;;;;;;;6.03;5.10;;;;;;;26.65;49.99;100665.56;5067414;28;20059;-74
2022/07/25 03:07:46;;;;;;;7.28;4.38;;;;;;;26.66;50.19;100664.38;5075351;28;20477;-74
2022/07/25 03:10:14;;;;;;;6.05;5.10;;;;;;;26.78;49.74;100658.44;5061873;28;20052;-74
2022/07/25 03:12:43;;;;;;;5.85;4.68;;;;;;;26.74;49.99;100665.22;5075530;28;20044;-74
2022/07/25 03:15:12;;;;;;;6.30;4.70;;;;;;;26.67;50.02;100665.97;5073733;28;20088;-74
2022/07/25 03:17:41;;;;;;;7.80;5.18;;;;;;;26.67;50.08;100668.78;5075423;28;20044;-74
2022/07/25 03:20:09;;;;;;;6.35;5.13;;;;;;;26.67;50.33;100668.78;5075175;28;20047;-74
2022/07/25 03:22:37;;;;;;;5.60;4.85;;;;;;;26.67;50.44;100665.97;5075371;28;20390;-74
2022/07/25 03:25:06;;;;;;;5.63;4.65;;;;;;;26.64;50.73;100670.38;5075095;28;20055;-74
2022/07/25 03:27:48;;;;;;;6.30;5.03;;;;;;;26.63;50.59;100671.56;5075295;28;20119;-74
2022/07/25 03:30:16;;;;;;;5.05;4.50;;;;;;;26.63;50.28;100670.78;5075074;28;20040;-74
2022/07/25 03:32:44;;;;;;;5.13;4.70;;;;;;;26.77;48.84;100670.88;5074464;28;20064;-74
2022/07/25 03:35:12;;;;;;;4.95;4.32;;;;;;;26.93;49.19;100672.63;5074962;28;20501;-74
2022/07/25 03:37:40;;;;;;;6.82;4.82;;;;;;;27.06;48.24;100675.88;5075112;28;20051;-74
2022/07/25 03:40:09;;;;;;;5.28;4.78;;;;;;;27.13;48.36;100678.75;5074798;28;20483;-74
2022/07/25 03:42:36;;;;;;;8.77;5.03;;;;;;;27.18;48.19;100674.78;5075017;28;20048;-74
2022/07/25 03:45:05;;;;;;;5.55;4.95;;;;;;;27.20;48.06;100684.41;5074771;28;20078;-74
2022/07/25 03:47:33;;;;;;;7.15;4.85;;;;;;;27.18;47.99;100683.19;5066881;28;20044;-74
2022/07/25 03:50:01;;;;;;;5.75;4.57;;;;;;;27.08;48.23;100682.72;5074769;28;20052;-74
2022/07/25 03:52:29;;;;;;;5.95;5.10;;;;;;;27.07;48.24;100681.13;5057424;28;20055;-74
2022/07/25 03:54:57;;;;;;;6.35;5.25;;;;;;;27.19;47.54;100688.44;5074700;28;20481;-74
2022/07/25 03:57:25;;;;;;;7.68;4.57;;;;;;;27.14;48.14;100687.97;5072734;28;20049;-74
2022/07/25 03:59:52;;;;;;;6.03;4.88;;;;;;;27.12;48.22;100691.16;5074636;28;20052;-74
2022/07/25 04:02:20;;;;;;;5.57;4.97;;;;;;;27.06;48.24;100682.31;5074352;28;20045;-74
2022/07/25 04:04:48;;;;;;;5.97;4.85;;;;;;;26.99;48.48;100687.09;5074183;28;20398;-74
2022/07/25 04:07:16;;;;;;;5.60;4.72;;;;;;;27.00;49.08;100686.69;5069258;28;20041;-74
2022/07/25 04:09:44;;;;;;;6.55;5.53;;;;;;;27.06;48.44;100689.94;5060207;28;20044;-75
2022/07/25 04:12:12;;;;;;;8.88;5.30;;;;;;;27.26;47.64;100681.25;5063422;28;20052;-75
2022/07/25 04:14:40;;;;;;;7.00;5.07;;;;;;;27.22;48.25;100684.81;5074182;28;20368;-75
2022/07/25 04:17:08;;;;;;;8.35;5.20;;;;;;;27.33;47.66;100684.88;5073539;28;20123;-75
2022/07/25 04:19:36;;;;;;;5.15;4.47;;;;;;;27.21;48.29;100690.81;5074266;28;20045;-75
2022/07/25 04:22:04;;;;;;;6.28;5.45;;;;;;;27.14;49.03;100693.59;5073137;28;20059;-76
2022/07/25 04:24:32;;;;;;;7.40;4.68;;;;;;;27.00;49.39;100688.69;5074223;28;20040;-75
2022/07/25 04:26:59;;;;;;;11.65;5.40;;;;;;;26.89;49.66;100683.81;5072802;28;20051;-75
2022/07/25 04:29:28;;;;;;;12.43;5.45;;;;;;;27.13;48.96;100692.81;5070418;28;20048;-77
2022/07/25 04:31:56;;;;;;;14.32;5.85;;;;;;;27.40;48.03;100686.09;5088723;28;20043;-77
2022/07/25 04:34:25;;;;;;;8.65;5.38;;;;;;;27.61;47.08;100683.41;5073959;28;20041;-77
2022/07/25 04:36:52;;;;;;;8.48;4.75;;;;;;;27.80;46.72;100681.47;5071945;28;20057;-77
2022/07/25 04:39:20;;;;;;;6.55;5.28;;;;;;;27.97;46.34;100693.16;5061689;28;20036;-77
2022/07/25 04:41:48;;;;;;;11.63;5.40;;;;;;;28.01;46.50;100688.38;5072446;28;20053;-77
2022/07/25 04:44:16;;;;;;;7.68;5.30;;;;;;;28.09;46.53;100687.16;5073726;28;20475;-77
2022/07/25 04:46:44;;;;;;;6.57;4.97;;;;;;;28.13;46.35;100685.19;5071166;28;20520;-78
2022/07/25 04:49:12;;;;;;;10.57;5.18;;;;;;;28.07;47.02;100695.22;5073384;28;20033;-78
2022/07/25 04:51:40;;;;;;;7.55;5.35;;;;;;;28.03;46.79;100688.75;5072855;28;20041;-78
2022/07/25 04:54:08;;;;;;;7.38;5.30;;;;;;;28.06;46.54;100684.34;5072803;28;20040;-78
2022/07/25 04:56:36;;;;;;;7.90;5.28;;;;;;;28.06;46.22;100679.53;5072179;28;20037;-78
2022/07/25 04:59:05;;;;;;;7.45;5.38;;;;;;;28.19;46.03;100679.16;5069670;28;20049;-80
2022/07/25 05:01:34;;;;;;;7.95;5.10;;;;;;;28.16;46.08;100675.91;5070028;28;20049;-80
2022/07/25 05:04:02;;;;;;;10.80;5.28;;;;;;;28.13;46.91;100678.72;5071795;28;20049;-79
2022/07/25 05:06:31;;;;;;;11.07;4.60;;;;;;;28.29;46.22;100681.19;5071339;28;20052;-79
2022/07/25 05:08:59;;;;;;;9.13;5.63;;;;;;;28.36;46.22;100683.22;5063120;28;20068;-80
2022/07/25 05:11:27;;;;;;;9.30;5.05;;;;;;;28.52;45.24;100680.81;5068296;28;20063;-80
2022/07/25 05:13:55;;;;;;;5.25;4.75;;;;;;;28.66;44.97;100679.19;5072760;28;20045;-80
2022/07/25 05:16:24;;;;;;;6.28;5.30;;;;;;;28.84;44.87;100687.63;5070797;28;20053;-78
2022/07/25 05:18:52;;;;;;;8.07;4.85;;;;;;;28.89;44.94;100684.44;5071725;28;20059;-79
2022/07/25 05:21:20;;;;;;;7.70;5.68;;;;;;;28.97;45.12;100690.84;5065955;28;20052;-80
2022/07/25 05:23:48;;;;;;;11.63;5.50;;;;;;;29.03;45.28;100694.06;5062140;28;20059;-82
2022/07/25 05:26:16;;;;;;;9.38;5.68;;;;;;;28.99;45.55;100688.44;5070928;28;20064;-81
2022/07/25 05:28:44;;;;;;;8.85;5.80;;;;;;;29.07;45.90;100687.22;5072177;28;20071;-82
2022/07/25 05:31:12;;;;;;;8.02;5.55;;;;;;;29.03;46.01;100694.84;5072380;28;20067;-81
2022/07/25 05:33:41;;;;;;;9.57;5.45;;;;;;;29.17;45.74;100694.03;5065840;28;20048;-80
2022/07/25 05:36:09;;;;;;;9.63;6.18;;;;;;;29.09;45.58;100692.44;5065412;28;20041;-80
2022/07/25 05:38:37;;;;;;;11.10;5.53;;;;;;;29.30;45.47;100700.03;5070921;28;20037;-78
2022/07/25 05:41:11;;;;;;;7.72;5.93;;;;;;;29.30;45.29;100697.22;5070878;28;20402;-78
2022/07/25 05:43:44;;;;;;;5.97;5.38;;;;;;;29.26;45.32;100687.16;5070727;28;20051;-77
2022/07/25 05:46:13;;;;;;;8.63;5.70;;;;;;;29.38;44.84;100700.81;5070669;28;20075;-77
2022/07/25 05:48:45;;;;;;;10.32;5.60;;;;;;;29.61;44.15;100700.34;5070878;28;20040;-78
2022/07/25 05:51:14;;;;;;;6.40;5.38;;;;;;;29.61;43.79;100699.53;5067512;28;20048;-78
2022/07/25 05:53:42;;;;;;;7.30;5.63;;;;;;;29.55;43.66;100690.69;5068936;28;20058;-77
2022/07/25 05:56:10;;;;;;;10.63;5.47;;;;;;;29.62;43.32;100692.69;5070928;28;20053;-77
2022/07/25 05:58:39;;;;;;;6.00;4.88;;;;;;;29.56;43.20;100680.25;5071214;28;20040;-78
2022/07/25 06:01:11;;;;;;;7.28;5.60;;;;;;;29.59;42.89;100674.59;5070173;28;20701;-78
2022/07/25 06:03:39;;;;;;;7.22;5.38;;;;;;;29.71;42.91;100687.41;5084825;28;20052;-78
2022/07/25 06:06:07;;;;;;;8.25;5.38;;;;;;;29.81;42.63;100687.78;5070775;28;21207;-78
2022/07/25 06:08:37;;;;;;;14.10;5.90;;;;;;;29.90;42.29;100688.91;5062462;28;20041;-78
2022/07/25 06:11:06;;;;;;;6.63;5.05;;;;;;;30.04;42.19;100688.03;5065409;28;20044;-77
2022/07/25 06:13:36;;;;;;;10.75;5.70;;;;;;;30.01;42.28;100671.91;5072044;28;20044;-78
2022/07/25 06:16:04;;;;;;;7.93;5.40;;;;;;;30.10;42.02;100682.78;5071048;28;20052;-78
2022/07/25 06:18:32;;;;;;;9.20;5.03;;;;;;;30.12;42.54;100677.53;5059922;28;20051;-78
2022/07/25 06:21:00;;;;;;;5.88;5.18;;;;;;;30.06;41.85;100678.34;5071864;28;20051;-78
2022/07/25 06:23:30;;;;;;;8.90;5.28;;;;;;;30.14;41.72;100675.09;5070589;28;20036;-78
2022/07/25 06:25:58;;;;;;;7.35;5.13;;;;;;;30.28;41.42;100677.00;5072041;28;20051;-78
2022/07/25 06:28:26;;;;;;;6.05;4.90;;;;;;;30.48;41.17;100687.72;5071566;28;20040;-78
2022/07/25 06:30:54;;;;;;;5.72;5.13;;;;;;;30.51;40.90;100675.63;5071622;28;20055;-78
2022/07/25 06:33:22;;;;;;;5.30;4.57;;;;;;;30.65;40.89;100674.66;5071726;28;20053;-77
2022/07/25 06:35:50;;;;;;;9.13;4.82;;;;;;;30.78;40.06;100675.00;5071781;28;20040;-77
2022/07/25 06:38:17;;;;;;;8.77;5.53;;;;;;;30.89;39.80;100676.91;5070594;28;20051;-77
2022/07/25 06:40:45;;;;;;;7.20;5.03;;;;;;;30.97;39.45;100673.59;5071715;28;20398;-77
2022/07/25 06:43:13;;;;;;;8.10;5.18;;;;;;;30.95;39.11;100673.22;5070499;28;20044;-77
2022/07/25 06:45:45;;;;;;;6.72;4.90;;;;;;;31.03;39.28;100673.94;5071880;28;20044;-77
2022/07/25 06:48:14;;;;;;;6.45;4.88;;;;;;;31.07;38.87;100673.88;5071792;28;20053;-77
2022/07/25 06:50:42;;;;;;;9.45;5.40;;;;;;;31.11;38.63;100672.63;5071815;28;20510;-77
2022/07/25 06:53:10;;;;;;;6.25;4.95;;;;;;;31.14;38.67;100675.84;5071885;28;20045;-78
2022/07/25 06:55:38;;;;;;;17.75;5.65;;;;;;;31.21;38.83;100670.09;5071567;28;20044;-77
2022/07/25 06:58:06;;;;;;;7.40;4.95;;;;;;;31.26;39.06;100671.69;5071673;28;20052;-77
2022/07/25 07:00:34;;;;;;;8.82;5.05;;;;;;;31.42;38.78;100668.28;5070290;28;20051;-78
2022/07/25 07:03:02;;;;;;;10.43;5.30;;;;;;;31.57;38.52;100678.16;5071568;28;20041;-77
2022/07/25 07:05:33;;;;;;;11.75;5.65;;;;;;;31.72;38.54;100675.16;5071533;28;20048;-78
2022/07/25 07:08:01;;;;;;;11.27;5.88;;;;;;;31.64;38.93;100669.59;5068211;28;20040;-77
2022/07/25 07:10:29;;;;;;;10.20;4.93;;;;;;;31.68;38.66;100678.03;5059942;28;20755;-77
2022/07/25 07:13:06;;;;;;;7.97;5.47;;;;;;;31.73;38.72;100663.41;5071403;28;20045;-77
2022/07/25 07:15:35;;;;;;;6.80;5.30;;;;;;;31.75;38.03;100668.63;5071545;28;20055;-77
2022/07/25 07:18:05;;;;;;;6.93;4.93;;;;;;;31.80;38.79;100668.16;5071259;28;20048;-77
2022/07/25 07:20:33;;;;;;;9.23;5.13;;;;;;;31.85;38.69;100673.38;5071301;28;20044;-77
2022/07/25 07:23:01;;;;;;;7.97;5.10;;;;;;;32.01;38.07;100669.13;5071393;28;20041;-77
2022/07/25 07:25:30;;;;;;;9.43;5.55;;;;;;;32.06;38.04;100667.81;5071242;28;20063;-77
2022/07/25 07:27:57;;;;;;;7.15;5.05;;;;;;;32.06;38.19;100662.16;5071206;28;20051;-77
2022/07/25 07:30:26;;;;;;;5.63;4.95;;;;;;;32.01;38.51;100663.47;5071216;28;20048;-77
2022/07/25 07:33:14;;;;;;;6.50;4.80;;;;;;;32.01;38.46;100658.59;5071393;28;20491;-78
2022/07/25 07:35:44;;;;;;;6.88;5.22;;;;;;;32.00;38.13;100662.66;5071171;28;20036;-77
2022/07/25 07:38:12;;;;;;;10.27;5.28;;;;;;;32.12;38.09;100664.09;5071333;28;20052;-77
2022/07/25 07:40:40;;;;;;;9.63;5.57;;;;;;;32.21;38.27;100660.72;5074378;28;20036;-77
2022/07/25 07:43:08;;;;;;;7.75;5.15;;;;;;;32.23;37.92;100660.28;5074943;28;20049;-77
2022/07/25 07:45:36;;;;;;;10.68;5.65;;;;;;;32.24;38.00;100659.03;5074751;28;20044;-78
2022/07/25 07:48:05;;;;;;;9.57;5.35;;;;;;;32.18;37.83;100661.56;5074653;28;20608;-78
2022/07/25 07:50:33;;;;;;;6.43;5.15;;;;;;;32.22;37.87;100655.84;5074648;28;20043;-78
2022/07/25 07:53:01;;;;;;;7.88;5.28;;;;;;;32.31;38.28;100653.28;5074675;28;20040;-78
2022/07/25 07:55:47;;;;;;;9.38;5.15;;;;;;;32.44;37.59;100662.78;5074570;28;20041;-78
2022/07/25 07:58:17;;;;;;;7.07;5.47;;;;;;;32.41;37.98;100660.78;5074494;28;20048;-78
2022/07/25 08:00:48;;;;;;;5.63;5.10;;;;;;;32.45;37.82;100663.59;5074307;28;20067;-78
2022/07/25 08:03:20;;;;;;;6.43;5.53;;;;;;;32.57;38.23;100657.31;5074461;28;20502;-78
2022/07/25 08:05:50;;;;;;;7.18;5.30;;;;;;;32.59;36.77;100651.19;5074354;28;20071;-78
2022/07/25 08:08:18;;;;;;;8.93;5.43;;;;;;;32.66;37.27;100662.41;5069812;28;20044;-78
2022/07/25 08:10:47;;;;;;;7.82;5.25;;;;;;;32.65;36.48;100660.78;5065072;28;20032;-78
2022/07/25 08:13:24;;;;;;;5.22;4.72;;;;;;;32.68;36.79;100654.28;5074127;28;20391;-78
2022/07/25 08:15:58;;;;;;;8.75;5.00;;;;;;;32.81;36.33;100662.13;5074250;28;20048;-78
2022/07/25 08:18:28;;;;;;;14.63;5.35;;;;;;;32.80;36.89;100654.88;5074063;28;20037;-78
2022/07/25 08:20:57;;;;;;;6.47;4.30;;;;;;;32.86;36.36;100658.81;5074058;28;20487;-78
2022/07/25 08:23:26;;;;;;;8.82;5.75;;;;;;;32.79;36.67;100658.94;5074057;28;20479;-78
2022/07/25 08:25:54;;;;;;;7.32;5.47;;;;;;;32.93;36.92;100657.88;5074087;28;20069;-78
2022/07/25 08:28:22;;;;;;;8.45;5.82;;;;;;;33.00;36.92;100656.97;5073816;28;20056;-78
2022/07/25 08:30:50;;;;;;;8.65;5.50;;;;;;;33.10;36.47;100650.28;5073909;28;20513;-78
2022/07/25 08:33:18;;;;;;;5.53;5.03;;;;;;;33.23;36.17;100647.59;5073766;28;20045;-78
2022/07/25 08:35:52;;;;;;;6.32;4.80;;;;;;;33.27;35.22;100656.03;5073807;28;20041;-78
2022/07/25 08:38:22;;;;;;;5.88;4.70;;;;;;;33.31;35.15;100642.56;5073774;28;20403;-78
2022/07/25 08:40:52;;;;;;;6.55;5.85;;;;;;;33.52;34.92;100641.31;5059798;28;20049;-78
2022/07/25 08:43:20;;;;;;;4.93;4.43;;;;;;;33.66;33.81;100645.88;5073730;28;20059;-78
2022/07/25 08:45:50;;;;;;;5.93;4.75;;;;;;;33.52;33.44;100638.47;5073554;28;20044;-77
2022/07/25 08:48:23;;;;;;;6.50;4.72;;;;;;;33.57;33.69;100649.31;5073500;28;20044;-77
2022/07/25 08:50:52;;;;;;;5.85;4.70;;;;;;;33.61;33.88;100652.88;5072272;28;20047;-78
2022/07/25 08:53:20;;;;;;;6.13;4.60;;;;;;;33.71;33.63;100641.75;5073454;28;20090;-78
2022/07/25 08:56:05;;;;;;;5.65;4.65;;;;;;;33.75;33.52;100640.41;5073278;28;20051;-78
2022/07/25 08:58:40;;;;;;;6.40;4.63;;;;;;;33.75;33.41;100631.09;5073461;28;20402;-78
2022/07/25 09:01:12;;;;;;;4.93;4.53;;;;;;;33.73;33.83;100640.06;5073067;28;20055;-79
2022/07/25 09:03:42;;;;;;;7.15;4.75;;;;;;;33.77;33.58;100629.41;5072085;28;20040;-78
2022/07/25 09:06:21;;;;;;;5.72;4.75;;;;;;;33.78;33.01;100639.50;5073093;28;20044;-78
2022/07/25 09:08:54;;;;;;;10.10;4.93;;;;;;;33.85;32.59;100634.91;5064505;28;20052;-78
2022/07/25 09:11:31;;;;;;;5.47;4.03;;;;;;;33.82;31.57;100624.47;5068802;28;20399;-78
2022/07/25 09:14:01;;;;;;;4.55;4.18;;;;;;;34.01;32.00;100626.41;5073198;28;20055;-78
2022/07/25 09:16:33;;;;;;;9.63;4.97;;;;;;;33.91;31.61;100627.47;5073008;28;20048;-78
2022/07/25 09:19:12;;;;;;;7.30;5.20;;;;;;;34.04;31.70;100622.72;5072978;28;20045;-78
2022/07/25 09:21:42;;;;;;;4.75;3.88;;;;;;;34.06;31.85;100630.78;5072916;28;20059;-78
2022/07/25 09:24:17;;;;;;;6.28;4.60;;;;;;;34.24;31.50;100626.69;5072867;28;20115;-78
2022/07/25 09:26:48;;;;;;;5.18;4.30;;;;;;;34.39;30.54;100627.94;5072851;28;20376;-78
2022/07/25 09:29:25;;;;;;;4.57;3.80;;;;;;;34.23;30.34;100614.56;5088200;28;20048;-78
2022/07/25 09:31:54;;;;;;;5.35;4.30;;;;;;;34.46;30.89;100615.59;5072422;28;20060;-78
2022/07/25 09:34:32;;;;;;;5.57;4.50;;;;;;;34.42;31.34;100617.72;5072616;28;20403;-78
2022/07/25 09:37:03;;;;;;;6.28;4.50;;;;;;;34.38;30.81;100609.31;5072652;28;20052;-78
2022/07/25 09:39:38;;;;;;;5.50;4.05;;;;;;;34.45;31.28;100617.63;5071016;28;20052;-78
2022/07/25 09:42:24;;;;;;;6.18;4.43;;;;;;;34.51;31.16;100615.06;5072413;28;20047;-78
2022/07/25 09:44:57;;;;;;;4.63;4.18;;;;;;;34.53;30.27;100606.88;5070791;28;20055;-78
2022/07/25 09:47:26;;;;;;;5.50;4.18;;;;;;;34.71;29.46;100606.41;5072486;28;20041;-79
2022/07/25 09:49:54;;;;;;;4.63;4.07;;;;;;;34.75;29.54;100608.38;5071106;28;20055;-79
2022/07/25 09:52:22;;;;;;;10.80;4.45;;;;;;;34.58;29.55;100600.69;5072343;28;20044;-79
2022/07/25 09:54:50;;;;;;;6.95;4.25;;;;;;;34.65;28.90;100593.22;5070693;28;20119;-78
2022/07/25 09:57:18;;;;;;;4.93;4.18;;;;;;;34.79;29.17;100592.78;5072102;28;20398;-78
2022/07/25 09:59:46;;;;;;;5.20;4.75;;;;;;;34.85;28.93;100585.31;5072171;28;20055;-78
2022/07/25 10:02:27;;;;;;;5.85;4.55;;;;;;;35.06;28.90;100585.13;5071852;28;20052;-78
2022/07/25 10:05:14;;;;;;;5.25;4.47;;;;;;;35.21;29.64;100585.53;5072351;28;20399;-79
2022/07/25 10:07:46;;;;;;;6.03;4.82;;;;;;;35.22;29.81;100587.13;5072034;28;20494;-79
2022/07/25 10:10:40;;;;;;;5.32;4.53;;;;;;;35.39;29.34;100587.84;5058394;28;20047;-79
2022/07/25 10:13:15;;;;;;;6.10;4.82;;;;;;;35.46;29.42;100575.44;5068627;28;20060;-79
2022/07/25 10:15:48;;;;;;;5.60;4.28;;;;;;;35.40;29.50;100578.06;5072210;28;20037;-79
2022/07/25 10:18:20;;;;;;;6.78;4.50;;;;;;;35.50;28.83;100570.44;5071921;28;20406;-79
2022/07/25 10:20:51;;;;;;;10.60;4.50;;;;;;;35.60;28.35;100580.72;5071986;28;20071;-79
2022/07/25 10:23:20;;;;;;;7.80;4.45;;;;;;;35.55;28.53;100567.03;5071920;28;20051;-79
2022/07/25 10:26:06;;;;;;;5.93;4.55;;;;;;;35.40;28.44;100561.00;5071921;28;20051;-78
2022/07/25 10:28:43;;;;;;;6.15;4.32;;;;;;;35.54;27.53;100564.63;5071674;28;20390;-79
2022/07/25 10:31:32;;;;;;;5.72;4.57;;;;;;;35.61;27.70;100559.53;5071857;28;20049;-78
2022/07/25 10:34:06;;;;;;;5.30;4.80;;;;;;;35.86;28.15;100560.75;5071960;28;20044;-79
2022/07/25 10:36:54;;;;;;;5.57;4.35;;;;;;;35.89;26.57;100561.88;5071872;28;20482;-78
2022/07/25 10:39:22;;;;;;;6.03;4.10;;;;;;;35.86;27.55;100557.13;5051595;28;20484;-79
2022/07/25 10:41:52;;;;;;;4.60;3.95;;;;;;;35.89;26.89;100553.34;5061971;28;20068;-79
2022/07/25 10:44:20;;;;;;;4.15;3.80;;;;;;;35.99;26.01;100545.69;5071671;28;20048;-79
2022/07/25 10:46:49;;;;;;;5.88;4.10;;;;;;;36.15;26.36;100551.25;5070469;28;20048;-78
2022/07/25 10:49:24;;;;;;;8.02;4.20;;;;;;;36.23;26.49;100537.56;5071539;28;20063;-78
2022/07/25 10:52:03;;;;;;;5.85;4.20;;;;;;;36.21;26.50;100531.53;5071775;28;20048;-79
2022/07/25 10:54:36;;;;;;;4.18;3.78;;;;;;;36.38;25.98;100539.91;5071582;28;20049;-78
2022/07/25 10:57:13;;;;;;;4.13;3.80;;;;;;;36.38;26.24;100535.00;5071723;28;20048;-78
2022/07/25 10:59:41;;;;;;;4.45;4.10;;;;;;;36.46;25.22;100535.56;5071487;28;20044;-78
2022/07/25 11:02:15;;;;;;;5.15;4.00;;;;;;;36.37;25.13;100521.22;5071609;28;20051;-78
2022/07/25 11:04:44;;;;;;;5.35;4.07;;;;;;;36.49;25.21;100519.59;5071579;28;20055;-78
2022/07/25 11:07:16;;;;;;;4.00;3.63;;;;;;;36.56;25.51;100519.31;5071497;28;20506;-78
2022/07/25 11:09:56;;;;;;;4.20;3.90;;;;;;;36.51;25.63;100517.06;5057409;28;20491;-78
2022/07/25 11:12:24;;;;;;;5.05;3.88;;;;;;;36.56;25.55;100519.31;5071564;28;20044;-78
2022/07/25 11:15:06;;;;;;;5.22;3.83;;;;;;;36.48;24.82;100509.41;5089205;28;20052;-78
2022/07/25 11:17:34;;;;;;;4.30;3.78;;;;;;;36.52;25.29;100498.69;5075355;28;20047;-78
2022/07/25 11:20:07;;;;;;;5.20;4.70;;;;;;;36.72;25.28;100498.38;5073737;28;20048;-78
2022/07/25 11:22:35;;;;;;;4.00;3.60;;;;;;;36.88;25.59;100493.72;5075176;28;20059;-78
2022/07/25 11:25:12;;;;;;;4.32;4.00;;;;;;;36.93;25.64;100493.09;5075101;28;20048;-78
2022/07/25 11:27:40;;;;;;;6.55;4.13;;;;;;;36.92;25.32;100498.03;5075245;28;20044;-79
2022/07/25 11:30:18;;;;;;;5.68;3.97;;;;;;;37.10;25.57;100502.25;5074875;28;20048;-78
2022/07/25 11:32:48;;;;;;;4.55;4.15;;;;;;;37.09;25.45;100497.78;5074894;28;20506;-78
2022/07/25 11:35:22;;;;;;;4.82;4.22;;;;;;;36.91;25.22;100487.88;5074732;28;20419;-78